Time;durP1;ratioP1;P1;durP2;ratioP2;P2;SDS_P1;SDS_P2;PMS_P1;PMS_P2;Temp;Humidity;BMP_temperature;BMP_pressure;BME280_temperature;BME280_humidity;BME280_pressure;Samples;Min_cycle;Max_cycle;Signal;HPM_P1;HPM_P2
2022/12/12 00:01:36;;;;;;;7.27;2.70;;;23.30;99.90;;;;;;4935536;29;20216;-76
2022/12/12 00:04:05;;;;;;;12.17;2.87;;;23.80;99.90;;;;;;4935540;29;20611;-71
2022/12/12 00:06:32;;;;;;;9.23;2.40;;;24.00;99.90;;;;;;4947630;29;20272;-70
2022/12/12 00:09:00;;;;;;;8.70;1.80;;;24.00;99.90;;;;;;4935498;29;20280;-71
2022/12/12 00:11:28;;;;;;;10.03;2.23;;;24.10;99.90;;;;;;4934884;29;20205;-71
2022/12/12 00:13:56;;;;;;;10.40;1.93;;;23.90;99.90;;;;;;4934674;29;20181;-71
2022/12/12 00:16:24;;;;;;;5.17;1.70;;;23.70;99.90;;;;;;4934493;29;20256;-71
2022/12/12 00:18:52;;;;;;;7.60;2.00;;;23.60;99.90;;;;;;4933326;29;20628;-77
2022/12/12 00:21:23;;;;;;;5.87;2.03;;;23.60;99.90;;;;;;4934003;29;20774;-72
2022/12/12 00:23:51;;;;;;;8.30;2.30;;;23.30;99.90;;;;;;4930924;29;20194;-72
2022/12/12 00:26:23;;;;;;;12.83;2.83;;;23.30;99.90;;;;;;4937518;29;20613;-70
2022/12/12 00:28:50;;;;;;;6.73;1.93;;;23.20;99.90;;;;;;4936645;29;20181;-71
2022/12/12 00:31:19;;;;;;;6.77;2.10;;;23.10;99.90;;;;;;4947589;28;20274;-71
2022/12/12 00:33:48;;;;;;;5.47;1.80;;;23.10;99.90;;;;;;4937036;29;20188;-75
2022/12/12 00:36:18;;;;;;;5.20;1.90;;;23.10;99.90;;;;;;4932153;29;20196;-70
2022/12/12 00:38:45;;;;;;;4.80;1.90;;;23.00;99.90;;;;;;4934488;29;20224;-70
2022/12/12 00:41:13;;;;;;;10.40;1.60;;;23.00;99.90;;;;;;4919091;29;20196;-71
2022/12/12 00:43:41;;;;;;;3.17;0.90;;;22.80;99.90;;;;;;4934243;29;20192;-71
2022/12/12 00:46:08;;;;;;;2.73;0.70;;;22.80;99.90;;;;;;4934288;29;20198;-70
2022/12/12 00:48:36;;;;;;;2.90;1.03;;;23.00;99.90;;;;;;4934882;29;20634;-75
2022/12/12 00:51:16;;;;;;;1.87;0.50;;;23.20;99.90;;;;;;4934055;29;20688;-70
2022/12/12 00:53:44;;;;;;;0.60;0.40;;;23.10;99.90;;;;;;4932656;29;20262;-73
2022/12/12 00:56:11;;;;;;;2.47;0.50;;;23.20;99.90;;;;;;4919148;29;20212;-70
2022/12/12 00:58:39;;;;;;;1.63;0.50;;;23.10;99.90;;;;;;4934047;29;20223;-71
2022/12/12 01:01:11;;;;;;;2.53;0.40;;;23.10;99.90;;;;;;4934267;29;20192;-70
2022/12/12 01:03:40;;;;;;;1.50;0.60;;;23.10;99.90;;;;;;4934309;29;20200;-71
2022/12/12 01:06:08;;;;;;;1.50;0.60;;;23.00;99.90;;;;;;4934194;29;20582;-72
2022/12/12 01:08:37;;;;;;;2.30;0.40;;;22.80;99.90;;;;;;4917182;29;20597;-70
2022/12/12 01:11:06;;;;;;;1.20;0.60;;;22.70;99.90;;;;;;4934236;29;20184;-71
2022/12/12 01:13:34;;;;;;;1.40;0.70;;;22.70;99.90;;;;;;4932865;29;20642;-70
2022/12/12 01:16:02;;;;;;;1.30;0.53;;;22.90;99.90;;;;;;4933024;29;20198;-73
2022/12/12 01:18:29;;;;;;;1.70;0.60;;;23.30;99.90;;;;;;4932572;29;20212;-71
2022/12/12 01:20:57;;;;;;;1.27;0.53;;;23.80;99.90;;;;;;4933442;29;20187;-76
2022/12/12 01:23:24;;;;;;;4.33;0.70;;;24.40;99.90;;;;;;4934017;29;20192;-70
2022/12/12 01:26:03;;;;;;;2.63;0.47;;;24.70;99.90;;;;;;4933760;29;20189;-71
2022/12/12 01:28:31;;;;;;;2.50;0.87;;;24.70;99.90;;;;;;4934192;29;20203;-70
2022/12/12 01:30:58;;;;;;;0.77;0.53;;;24.50;99.90;;;;;;4933727;29;20192;-70
2022/12/12 01:33:25;;;;;;;1.33;0.90;;;24.20;99.90;;;;;;4933657;29;20542;-71
2022/12/12 01:35:53;;;;;;;2.23;0.30;;;24.10;99.90;;;;;;4934069;29;20243;-70
2022/12/12 01:38:23;;;;;;;0.57;0.30;;;24.10;99.90;;;;;;4933137;29;20260;-75
2022/12/12 01:40:52;;;;;;;0.60;0.50;;;24.20;99.90;;;;;;4933717;29;20206;-76
2022/12/12 01:43:21;;;;;;;2.30;0.40;;;24.20;99.90;;;;;;4935310;29;20294;-70
2022/12/12 01:46:01;;;;;;;1.43;0.40;;;24.40;99.90;;;;;;4936859;29;20231;-78
2022/12/12 01:48:47;;;;;;;0.30;0.30;;;25.40;99.90;;;;;;4937486;29;20222;-75
2022/12/12 01:51:19;;;;;;;1.80;0.33;;;26.30;99.90;;;;;;4937689;29;20236;-77
2022/12/12 01:53:49;;;;;;;2.73;0.80;;;27.10;99.90;;;;;;4937818;29;20185;-73
2022/12/12 01:56:19;;;;;;;2.37;0.50;;;27.40;99.90;;;;;;4937866;29;20176;-73
2022/12/12 01:58:50;;;;;;;1.57;0.40;;;27.70;99.90;;;;;;4937661;29;20220;-75
2022/12/12 02:01:19;;;;;;;1.00;0.40;;;28.40;99.90;;;;;;4937844;29;20203;-74
2022/12/12 02:03:50;;;;;;;3.00;0.33;;;28.30;99.90;;;;;;4937012;29;20647;-72
2022/12/12 02:06:23;;;;;;;0.57;0.30;;;27.80;99.90;;;;;;4937396;29;20379;-79
2022/12/12 02:08:54;;;;;;;1.57;0.20;;;28.10;99.90;;;;;;4920132;29;20197;-71
2022/12/12 02:11:22;;;;;;;0.63;0.40;;;28.30;99.90;;;;;;4937025;29;20259;-70
2022/12/12 02:13:51;;;;;;;0.30;0.20;;;28.40;99.90;;;;;;4937216;29;20193;-70
2022/12/12 02:16:36;;;;;;;2.80;0.40;;;28.60;99.90;;;;;;4937309;29;20193;-70
2022/12/12 02:19:44;;;;;;;1.80;0.30;;;28.60;99.90;;;;;;4936552;29;20224;-74
2022/12/12 02:22:26;;;;;;;2.60;0.40;;;28.40;99.90;;;;;;4926345;29;20686;-70
2022/12/12 02:25:08;;;;;;;2.30;0.40;;;28.50;99.90;;;;;;4935666;29;20247;-70
2022/12/12 02:28:12;;;;;;;2.67;0.30;;;29.00;99.90;;;;;;4936939;29;20654;-70
2022/12/12 02:31:19;;;;;;;1.37;0.40;;;29.20;99.90;;;;;;4937233;29;20278;-71
2022/12/12 02:34:15;;;;;;;1.23;0.40;;;29.00;99.90;;;;;;4936838;29;20180;-75
2022/12/12 02:37:17;;;;;;;2.37;0.40;;;28.70;99.90;;;;;;4936902;29;20221;-74
2022/12/12 02:39:50;;;;;;;0.93;0.60;;;28.70;99.90;;;;;;4925891;29;20235;-71
2022/12/12 02:42:21;;;;;;;1.03;0.60;;;28.50;99.90;;;;;;4936489;29;20215;-70
2022/12/12 02:45:06;;;;;;;2.33;0.50;;;28.10;99.90;;;;;;4936834;29;20185;-69
2022/12/12 02:47:47;;;;;;;11.90;1.67;;;27.60;99.90;;;;;;4935733;29;20181;-70
2022/12/12 02:50:20;;;;;;;3.30;0.60;;;27.10;99.90;;;;;;4935477;29;20244;-70
2022/12/12 02:52:48;;;;;;;2.73;0.50;;;27.10;99.90;;;;;;4936584;29;20184;-70
2022/12/12 02:55:16;;;;;;;1.27;0.70;;;27.10;99.90;;;;;;4935910;29;20192;-75
2022/12/12 02:57:44;;;;;;;4.10;0.90;;;26.90;99.90;;;;;;4936568;29;20531;-70
2022/12/12 03:00:17;;;;;;;2.40;0.60;;;26.80;99.90;;;;;;4935409;29;20543;-69
2022/12/12 03:09:42;;;;;;;2.33;0.67;;;27.00;99.90;;;;;;4913901;29;20228;-70
2022/12/12 03:12:41;;;;;;;2.93;1.00;;;27.20;99.90;;;;;;4936590;29;20230;-76
2022/12/12 03:15:23;;;;;;;1.73;0.60;;;27.70;99.90;;;;;;4936375;29;20205;-71
2022/12/12 03:18:18;;;;;;;2.20;1.00;;;27.90;99.90;;;;;;4916973;29;20296;-69
2022/12/12 03:20:56;;;;;;;5.70;1.10;;;28.20;99.90;;;;;;4917384;29;20208;-70
2022/12/12 03:23:28;;;;;;;1.47;1.00;;;28.40;99.90;;;;;;4917421;29;20264;-70
2022/12/12 03:26:14;;;;;;;5.30;0.90;;;28.60;99.90;;;;;;4920195;29;20235;-70
2022/12/12 03:29:03;;;;;;;2.27;0.90;;;28.40;99.90;;;;;;4936209;29;20180;-70
2022/12/12 03:31:33;;;;;;;4.00;0.83;;;28.60;99.90;;;;;;4936218;29;20618;-70
2022/12/12 03:34:25;;;;;;;6.83;1.00;;;28.50;99.90;;;;;;4935443;29;20585;-75
2022/12/12 03:37:14;;;;;;;5.20;0.70;;;28.40;99.90;;;;;;4935946;29;20184;-69
2022/12/12 03:39:52;;;;;;;2.77;0.70;;;28.50;99.90;;;;;;4935049;29;20239;-70
2022/12/12 03:42:22;;;;;;;7.30;1.07;;;28.90;99.90;;;;;;4935591;29;20188;-73
2022/12/12 03:45:09;;;;;;;6.67;0.90;;;28.40;99.90;;;;;;4936029;29;20189;-70
2022/12/12 03:47:54;;;;;;;4.53;1.17;;;28.00;99.90;;;;;;4935319;29;20185;-70
2022/12/12 03:50:26;;;;;;;2.77;1.00;;;28.40;99.90;;;;;;4935476;29;20244;-70
2022/12/12 03:53:13;;;;;;;5.93;0.90;;;28.70;99.90;;;;;;4935134;29;20555;-69
2022/12/12 03:55:50;;;;;;;4.70;1.03;;;28.20;99.90;;;;;;4934889;29;20192;-71
2022/12/12 03:58:28;;;;;;;5.77;1.00;;;27.70;99.90;;;;;;4935627;29;20238;-75
2022/12/12 04:00:57;;;;;;;6.53;1.23;;;27.50;99.90;;;;;;4935558;29;20247;-70
2022/12/12 04:03:51;;;;;;;7.43;1.47;;;27.30;99.90;;;;;;4934695;29;20184;-71
2022/12/12 04:06:28;;;;;;;5.27;1.10;;;27.50;99.90;;;;;;4920784;29;20180;-68
2022/12/12 04:18:40;;;;;;;4.27;0.97;;;28.70;91.60;;;;;;4934556;29;20267;-74
2022/12/12 04:24:29;;;;;;;3.87;0.73;;;28.50;87.80;;;;;;4934404;29;20203;-70
2022/12/12 04:27:09;;;;;;;4.53;1.00;;;28.80;90.20;;;;;;4934835;29;20559;-73
2022/12/12 04:29:52;;;;;;;4.80;0.70;;;29.30;89.10;;;;;;4935121;29;20196;-71
2022/12/12 04:32:49;;;;;;;2.93;0.83;;;28.80;87.80;;;;;;4934739;29;20179;-70
2022/12/12 04:35:25;;;;;;;3.43;1.00;;;28.30;90.00;;;;;;4923204;29;20267;-76
2022/12/12 04:38:07;;;;;;;2.63;0.97;;;27.90;90.00;;;;;;4934872;29;20180;-71
2022/12/12 04:40:44;;;;;;;1.53;0.90;;;27.70;93.80;;;;;;4934655;29;20192;-70
2022/12/12 04:43:35;;;;;;;6.73;1.10;;;27.20;97.30;;;;;;4934566;29;20191;-78
2022/12/12 04:46:07;;;;;;;6.87;1.20;;;27.00;98.90;;;;;;4934556;29;20236;-70
2022/12/12 04:49:00;;;;;;;3.60;0.90;;;27.10;96.90;;;;;;4934822;29;20194;-75
2022/12/12 04:51:32;;;;;;;3.43;0.97;;;27.30;94.80;;;;;;4921198;29;20707;-70
2022/12/12 04:54:13;;;;;;;2.97;1.10;;;27.70;92.80;;;;;;4934243;29;20279;-69
2022/12/12 04:56:45;;;;;;;2.17;0.60;;;28.00;91.00;;;;;;4933654;29;20642;-69
2022/12/12 04:59:13;;;;;;;2.50;1.07;;;28.30;88.70;;;;;;4934698;29;20247;-69
2022/12/12 05:01:55;;;;;;;4.80;0.70;;;27.60;92.50;;;;;;4917119;29;20188;-75
2022/12/12 05:04:33;;;;;;;2.57;0.70;;;27.00;95.00;;;;;;4934951;29;20227;-69
2022/12/12 05:07:25;;;;;;;3.90;0.80;;;26.70;97.60;;;;;;4934777;29;20181;-69
2022/12/12 05:09:56;;;;;;;2.13;0.70;;;27.10;98.00;;;;;;4934320;29;20172;-69
2022/12/12 05:12:23;;;;;;;2.90;1.10;;;27.50;93.40;;;;;;4934113;29;20185;-71
2022/12/12 05:14:51;;;;;;;3.63;0.90;;;27.70;88.10;;;;;;4933490;29;20643;-69
2022/12/12 05:17:27;;;;;;;2.90;0.80;;;27.80;85.40;;;;;;4935144;29;20207;-70
2022/12/12 05:19:55;;;;;;;5.83;0.87;;;28.00;80.20;;;;;;4938540;29;20303;-76
2022/12/12 05:22:23;;;;;;;5.40;0.90;;;27.90;78.00;;;;;;4938529;29;20246;-70
2022/12/12 05:24:50;;;;;;;5.53;0.73;;;27.60;78.70;;;;;;4938182;29;20181;-76
2022/12/12 05:27:18;;;;;;;3.03;0.73;;;27.90;76.30;;;;;;4937847;29;20181;-72
2022/12/12 05:29:45;;;;;;;2.10;1.23;;;27.90;73.40;;;;;;4938302;29;20211;-72
2022/12/12 05:32:13;;;;;;;1.93;0.60;;;28.10;70.00;;;;;;4937612;29;20224;-72
2022/12/12 05:34:40;;;;;;;3.50;0.60;;;28.10;63.20;;;;;;4937144;29;20189;-70
2022/12/12 05:37:07;;;;;;;3.27;0.50;;;28.10;63.00;;;;;;4937578;29;20283;-70
2022/12/12 05:39:35;;;;;;;1.13;0.50;;;28.50;58.80;;;;;;4937214;29;20315;-77
2022/12/12 05:42:03;;;;;;;1.97;0.40;;;28.10;52.80;;;;;;4937894;29;20272;-73
2022/12/12 05:44:30;;;;;;;2.63;0.80;;;27.90;50.10;;;;;;4921124;29;20193;-72
2022/12/12 05:46:58;;;;;;;3.40;0.50;;;27.90;51.90;;;;;;4937686;29;20181;-71
2022/12/12 05:49:25;;;;;;;2.77;0.77;;;27.70;52.20;;;;;;4937639;29;20279;-75
2022/12/12 05:51:53;;;;;;;18.33;1.00;;;27.30;54.70;;;;;;4937451;29;20321;-71
2022/12/12 05:54:20;;;;;;;2.77;0.80;;;27.30;56.50;;;;;;4937451;29;20189;-75
2022/12/12 05:56:47;;;;;;;2.80;0.80;;;27.50;58.20;;;;;;4937839;29;20184;-72
2022/12/12 05:59:15;;;;;;;2.00;0.60;;;27.50;57.50;;;;;;4939984;29;20219;-76
2022/12/12 06:01:42;;;;;;;2.03;1.03;;;27.10;58.60;;;;;;4938255;29;20247;-69
2022/12/12 06:04:10;;;;;;;1.93;0.60;;;26.60;57.50;;;;;;4937781;29;20188;-68
2022/12/12 06:06:37;;;;;;;2.87;0.70;;;26.10;57.90;;;;;;4939298;29;20188;-76
2022/12/12 06:09:04;;;;;;;1.73;0.60;;;26.00;61.40;;;;;;4939237;29;20187;-71
2022/12/12 06:11:32;;;;;;;2.93;0.67;;;25.70;60.10;;;;;;4938361;29;20244;-69
2022/12/12 06:14:00;;;;;;;0.50;0.40;;;25.60;57.70;;;;;;4937392;29;20271;-73
2022/12/12 06:16:27;;;;;;;2.60;0.60;;;25.70;57.60;;;;;;4936999;29;20663;-71
2022/12/12 06:18:55;;;;;;;2.67;0.60;;;26.00;56.20;;;;;;4936823;29;20670;-68
2022/12/12 06:21:23;;;;;;;1.13;0.60;;;26.00;52.10;;;;;;4936914;29;20188;-73
2022/12/12 06:23:51;;;;;;;1.07;0.33;;;26.30;48.90;;;;;;4936576;29;20662;-69
2022/12/12 06:26:20;;;;;;;4.93;0.60;;;26.50;44.20;;;;;;4937120;29;20193;-69
2022/12/12 06:28:48;;;;;;;4.03;0.90;;;26.60;40.10;;;;;;4935698;29;20181;-78
2022/12/12 06:31:16;;;;;;;6.53;0.90;;;26.70;38.30;;;;;;4940042;29;20204;-67
2022/12/12 06:33:44;;;;;;;4.47;0.50;;;26.50;30.10;;;;;;4937172;29;20184;-73
2022/12/12 06:36:17;;;;;;;2.13;0.40;;;26.20;28.90;;;;;;4937038;29;20642;-66
2022/12/12 06:38:45;;;;;;;1.73;0.40;;;26.10;28.10;;;;;;4936334;29;20583;-67
2022/12/12 06:41:14;;;;;;;2.80;0.47;;;26.10;29.80;;;;;;4934695;29;20608;-73
2022/12/12 06:43:41;;;;;;;0.60;0.30;;;26.00;30.20;;;;;;4935701;29;20506;-70
2022/12/12 06:46:15;;;;;;;2.90;0.93;;;26.00;30.60;;;;;;4935523;29;20215;-70
2022/12/12 06:48:43;;;;;;;1.67;0.47;;;26.00;29.10;;;;;;4936942;29;20180;-74
2022/12/12 06:51:16;;;;;;;2.93;0.50;;;26.00;27.90;;;;;;4936815;29;20707;-69
2022/12/12 06:53:44;;;;;;;1.33;0.60;;;26.00;28.40;;;;;;4940858;29;20196;-72
2022/12/12 06:56:16;;;;;;;0.50;0.40;;;25.80;28.90;;;;;;4934724;29;20202;-72
2022/12/12 06:58:44;;;;;;;0.57;0.50;;;25.80;28.30;;;;;;4936260;29;20270;-69
2022/12/12 07:01:14;;;;;;;1.67;0.30;;;26.00;29.30;;;;;;4936303;29;20180;-69
2022/12/12 07:03:42;;;;;;;1.10;0.33;;;25.70;27.90;;;;;;4936476;29;20188;-69
2022/12/12 07:06:10;;;;;;;2.87;0.40;;;25.80;26.70;;;;;;4936036;29;20534;-72
2022/12/12 07:08:38;;;;;;;1.10;0.30;;;25.60;25.60;;;;;;4935658;29;20228;-69
2022/12/12 07:11:10;;;;;;;0.87;0.40;;;25.30;24.40;;;;;;4936053;29;20200;-70
2022/12/12 07:13:38;;;;;;;3.30;0.50;;;25.20;24.40;;;;;;4936462;29;20501;-73
2022/12/12 07:16:06;;;;;;;1.97;0.90;;;25.20;24.60;;;;;;4935640;29;20677;-69
2022/12/12 07:18:33;;;;;;;0.90;0.53;;;25.20;24.10;;;;;;4935389;29;20303;-68
2022/12/12 07:21:05;;;;;;;0.90;0.60;;;24.90;24.70;;;;;;4936461;29;20666;-73
2022/12/12 07:23:33;;;;;;;4.13;0.60;;;24.90;25.20;;;;;;4935726;29;20195;-70
2022/12/12 07:26:09;;;;;;;1.13;0.70;;;24.90;26.40;;;;;;4934413;29;20644;-69
2022/12/12 07:28:37;;;;;;;1.77;0.47;;;24.70;26.60;;;;;;4935247;29;20675;-73
2022/12/12 07:31:09;;;;;;;2.37;0.57;;;24.70;26.30;;;;;;4935258;29;20649;-69
2022/12/12 07:33:37;;;;;;;1.30;0.50;;;24.90;26.50;;;;;;4935707;29;20610;-71
2022/12/12 07:36:05;;;;;;;2.17;0.40;;;25.00;26.40;;;;;;4935282;29;20220;-70
2022/12/12 07:38:34;;;;;;;1.20;0.50;;;24.80;25.40;;;;;;4935444;29;20224;-70
2022/12/12 07:41:10;;;;;;;1.87;0.50;;;24.80;25.50;;;;;;4934970;29;20184;-70
2022/12/12 07:43:39;;;;;;;5.60;0.50;;;25.00;26.60;;;;;;4935169;29;20274;-69
2022/12/12 07:46:08;;;;;;;0.53;0.47;;;25.00;25.50;;;;;;4935450;29;20184;-68
2022/12/12 07:48:36;;;;;;;2.07;0.40;;;24.70;23.30;;;;;;4935447;29;20181;-68
2022/12/12 07:51:04;;;;;;;2.27;0.37;;;24.60;24.30;;;;;;4935141;29;20599;-69
2022/12/12 07:53:31;;;;;;;3.20;0.40;;;24.50;23.50;;;;;;4935705;29;20630;-70
2022/12/12 07:55:58;;;;;;;1.27;0.47;;;24.30;23.00;;;;;;4935200;29;20189;-69
2022/12/12 07:58:26;;;;;;;0.87;0.40;;;24.10;23.60;;;;;;4934795;29;20220;-69
2022/12/12 08:00:54;;;;;;;3.97;0.53;;;24.10;24.00;;;;;;4935470;29;20243;-76
2022/12/12 08:03:21;;;;;;;3.33;0.50;;;23.90;23.40;;;;;;4918478;29;20635;-70
2022/12/12 08:05:49;;;;;;;5.13;0.50;;;23.80;23.10;;;;;;4916017;29;20276;-71
2022/12/12 08:08:16;;;;;;;1.63;0.53;;;23.80;23.80;;;;;;4916413;29;20663;-70
2022/12/12 08:10:43;;;;;;;5.67;0.53;;;23.80;24.00;;;;;;4915767;29;20631;-70
2022/12/12 08:13:11;;;;;;;1.27;0.50;;;23.60;24.20;;;;;;4934924;29;20180;-71
2022/12/12 08:15:38;;;;;;;0.40;0.33;;;23.50;25.30;;;;;;4934092;29;20188;-72
2022/12/12 08:18:06;;;;;;;4.50;0.67;;;23.40;24.90;;;;;;4934863;29;20196;-69
2022/12/12 08:20:33;;;;;;;4.73;0.50;;;23.20;24.70;;;;;;4934867;29;20566;-70
2022/12/12 08:23:00;;;;;;;2.63;0.67;;;23.10;25.00;;;;;;4935018;29;20680;-70
2022/12/12 08:25:28;;;;;;;2.53;0.73;;;23.10;25.80;;;;;;4935154;29;20642;-71
2022/12/12 08:27:56;;;;;;;3.47;0.67;;;23.00;25.40;;;;;;4934567;29;20189;-70
2022/12/12 08:30:23;;;;;;;1.60;0.57;;;22.90;25.30;;;;;;4934630;29;20193;-75
2022/12/12 08:32:50;;;;;;;1.03;0.37;;;22.80;25.50;;;;;;4934945;29;20661;-68
2022/12/12 08:35:18;;;;;;;2.77;0.60;;;22.70;25.30;;;;;;4934181;29;20271;-68
2022/12/12 08:37:45;;;;;;;1.10;0.60;;;22.70;25.30;;;;;;4934826;29;20200;-72
2022/12/12 08:40:13;;;;;;;2.27;0.50;;;22.60;26.10;;;;;;4934909;29;20244;-70
2022/12/12 08:42:40;;;;;;;3.53;0.70;;;22.50;26.70;;;;;;4934158;29;20215;-70
2022/12/12 08:45:08;;;;;;;1.87;0.60;;;22.40;25.90;;;;;;4934605;29;20193;-70
2022/12/12 08:47:35;;;;;;;5.50;0.40;;;22.30;26.80;;;;;;4933504;29;20187;-70
2022/12/12 08:50:03;;;;;;;6.17;0.53;;;22.20;26.70;;;;;;4934433;29;20174;-72
2022/12/12 08:52:31;;;;;;;2.07;0.83;;;22.10;27.30;;;;;;4934119;29;20319;-70
2022/12/12 08:54:58;;;;;;;2.33;0.80;;;22.10;26.00;;;;;;4934563;29;20282;-70
2022/12/12 08:57:25;;;;;;;3.60;0.60;;;22.00;26.40;;;;;;4934264;29;20183;-69
2022/12/12 08:59:53;;;;;;;1.60;0.50;;;21.90;26.10;;;;;;4934557;29;20239;-70
2022/12/12 09:02:21;;;;;;;2.37;0.50;;;21.90;26.60;;;;;;4934392;29;20196;-70
2022/12/12 09:04:48;;;;;;;2.60;0.70;;;21.80;27.30;;;;;;4934267;29;20193;-72
2022/12/12 09:07:15;;;;;;;2.33;0.40;;;21.80;28.10;;;;;;4933299;29;20207;-68
2022/12/12 09:09:43;;;;;;;2.97;0.60;;;21.60;28.70;;;;;;4934736;29;20618;-71
2022/12/12 09:12:10;;;;;;;0.90;0.50;;;21.50;29.40;;;;;;4933801;29;20595;-70
2022/12/12 09:14:37;;;;;;;1.23;0.60;;;21.40;29.90;;;;;;4934666;29;20240;-69
2022/12/12 09:17:05;;;;;;;1.20;0.40;;;21.30;30.40;;;;;;4934507;29;20585;-70
2022/12/12 09:19:32;;;;;;;0.93;0.47;;;21.20;31.30;;;;;;4934165;29;20239;-71
2022/12/12 09:22:00;;;;;;;1.60;0.50;;;21.10;31.80;;;;;;4933944;29;20213;-69
2022/12/12 09:24:27;;;;;;;2.90;0.77;;;21.10;32.30;;;;;;4934553;29;20212;-70
2022/12/12 09:26:54;;;;;;;3.50;0.70;;;21.00;31.90;;;;;;4934137;29;20590;-70
2022/12/12 09:29:22;;;;;;;3.73;0.50;;;21.00;32.30;;;;;;4934035;29;20273;-70
2022/12/12 09:31:49;;;;;;;2.90;0.60;;;20.90;33.20;;;;;;4933801;29;20231;-69
2022/12/12 09:34:17;;;;;;;2.70;0.50;;;20.90;33.50;;;;;;4935510;29;20573;-70
2022/12/12 09:36:44;;;;;;;1.93;0.40;;;20.80;33.30;;;;;;4935223;29;20183;-69
2022/12/12 09:39:11;;;;;;;4.23;0.67;;;20.80;33.30;;;;;;4935616;29;20562;-70
2022/12/12 09:41:39;;;;;;;5.20;0.60;;;20.70;34.30;;;;;;4935245;29;20546;-68
2022/12/12 09:44:10;;;;;;;4.13;0.67;;;20.60;33.90;;;;;;4935500;29;20593;-69
2022/12/12 09:46:48;;;;;;;0.80;0.57;;;20.60;33.50;;;;;;4935496;29;20233;-70
2022/12/12 09:49:54;;;;;;;5.17;0.73;;;20.70;32.40;;;;;;4935449;29;20188;-69
2022/12/12 09:52:47;;;;;;;4.63;0.77;;;20.70;32.50;;;;;;4940941;29;20664;-73
2022/12/12 09:55:21;;;;;;;1.37;0.60;;;20.60;33.10;;;;;;4932815;29;20197;-69
2022/12/12 09:58:15;;;;;;;2.47;0.60;;;20.60;33.70;;;;;;4934880;29;20271;-70
2022/12/12 10:00:50;;;;;;;2.37;0.60;;;20.60;33.30;;;;;;4940331;29;20181;-72
2022/12/12 10:03:27;;;;;;;2.57;0.70;;;20.60;34.80;;;;;;4935667;29;20183;-68
2022/12/12 10:05:58;;;;;;;1.33;0.60;;;20.50;34.30;;;;;;4938803;29;20183;-72
2022/12/12 10:08:45;;;;;;;1.80;0.47;;;20.40;34.50;;;;;;4938802;29;20536;-71
2022/12/12 10:12:01;;;;;;;1.90;0.50;;;20.40;34.60;;;;;;4938653;29;20188;-69
2022/12/12 10:14:06;;;;;;;4.77;0.57;;;20.30;35.40;;;;;;4934818;29;20208;-69
2022/12/12 10:16:34;;;;;;;2.87;0.50;;;20.20;35.90;;;;;;4938293;29;20188;-68
2022/12/12 10:19:21;;;;;;;4.00;0.60;;;20.30;34.50;;;;;;4938239;29;20275;-68
2022/12/12 10:21:51;;;;;;;1.17;0.50;;;20.20;34.70;;;;;;4938591;29;20168;-68
2022/12/12 10:24:27;;;;;;;2.23;0.43;;;20.10;35.80;;;;;;4938693;29;20184;-67
2022/12/12 10:26:56;;;;;;;3.93;0.50;;;20.10;34.00;;;;;;4937821;29;20577;-72
2022/12/12 10:29:26;;;;;;;1.97;0.50;;;20.00;34.90;;;;;;4938592;29;20181;-68
2022/12/12 10:32:12;;;;;;;5.73;0.63;;;20.00;33.50;;;;;;4938427;29;20181;-72
2022/12/12 10:34:46;;;;;;;5.07;0.60;;;20.20;31.60;;;;;;4938150;29;20204;-69
2022/12/12 10:37:19;;;;;;;0.70;0.47;;;20.30;32.30;;;;;;4937631;29;20205;-72
2022/12/12 10:40:05;;;;;;;2.80;0.47;;;20.30;32.90;;;;;;4938235;29;20243;-69
2022/12/12 10:43:04;;;;;;;4.80;0.50;;;20.10;33.30;;;;;;4938778;29;20169;-69
2022/12/12 10:46:11;;;;;;;2.93;0.57;;;20.10;33.60;;;;;;4886273;29;20700;-73
2022/12/12 10:48:39;;;;;;;2.57;0.90;;;20.10;34.40;;;;;;4906021;29;20195;-69
2022/12/12 10:51:11;;;;;;;1.13;0.50;;;19.90;35.10;;;;;;4937852;29;20564;-72
2022/12/12 10:53:40;;;;;;;1.30;0.40;;;19.80;36.90;;;;;;4937549;29;20196;-69
2022/12/12 10:56:18;;;;;;;3.17;0.73;;;19.70;37.30;;;;;;4937458;29;20287;-72
2022/12/12 10:58:55;;;;;;;3.70;0.43;;;19.70;37.40;;;;;;4937707;29;20209;-69
2022/12/12 11:01:29;;;;;;;3.00;0.60;;;19.80;37.20;;;;;;4937436;29;20177;-68
2022/12/12 11:03:58;;;;;;;3.20;0.50;;;19.70;38.20;;;;;;4936295;29;20655;-69
2022/12/12 11:06:32;;;;;;;3.57;0.40;;;19.60;37.60;;;;;;4937346;29;20329;-70
2022/12/12 11:09:09;;;;;;;1.50;0.47;;;19.60;37.40;;;;;;4937733;29;20180;-68
2022/12/12 11:11:36;;;;;;;1.20;0.50;;;19.50;38.00;;;;;;4937820;29;20664;-68
2022/12/12 11:14:21;;;;;;;3.10;0.50;;;19.40;38.50;;;;;;4937619;29;20235;-71
2022/12/12 11:16:49;;;;;;;1.03;0.40;;;19.40;38.60;;;;;;4937381;29;20181;-72
2022/12/12 11:19:25;;;;;;;4.20;0.53;;;19.40;38.00;;;;;;4937409;29;20355;-68
2022/12/12 11:21:55;;;;;;;2.57;0.60;;;19.40;38.30;;;;;;4937916;29;20176;-73
2022/12/12 11:24:27;;;;;;;3.53;0.53;;;19.30;38.70;;;;;;4937588;29;20181;-68
2022/12/12 11:27:03;;;;;;;0.83;0.50;;;19.20;38.70;;;;;;4936117;29;20181;-69
2022/12/12 11:29:39;;;;;;;5.17;0.73;;;19.20;38.20;;;;;;4937392;29;20334;-68
2022/12/12 11:32:40;;;;;;;3.53;1.00;;;19.20;38.70;;;;;;4937427;29;20180;-68
2022/12/12 11:35:27;;;;;;;2.13;0.63;;;19.20;38.60;;;;;;4937099;29;20176;-68
2022/12/12 11:38:20;;;;;;;4.43;1.33;;;19.20;38.50;;;;;;4936886;29;20697;-70
2022/12/12 11:40:58;;;;;;;2.47;0.70;;;19.20;39.60;;;;;;4935711;29;20193;-69
2022/12/12 11:43:27;;;;;;;2.30;0.50;;;19.00;40.70;;;;;;4937009;29;20189;-72
2022/12/12 11:45:58;;;;;;;1.80;0.97;;;18.80;41.40;;;;;;4936957;29;20203;-73
2022/12/12 11:48:35;;;;;;;1.27;0.50;;;18.80;40.20;;;;;;4937000;29;20196;-69
2022/12/12 11:51:03;;;;;;;2.13;0.30;;;18.80;41.30;;;;;;4936661;29;20699;-69
2022/12/12 11:53:36;;;;;;;3.13;0.40;;;18.70;41.40;;;;;;4936843;29;20650;-73
2022/12/12 11:56:37;;;;;;;4.03;0.50;;;18.70;40.80;;;;;;4936583;29;20187;-73
2022/12/12 11:59:13;;;;;;;1.67;0.60;;;18.70;42.20;;;;;;4936826;29;20244;-68
2022/12/12 12:02:17;;;;;;;2.67;0.50;;;18.70;41.90;;;;;;4937027;29;20185;-68
2022/12/12 12:05:13;;;;;;;6.47;0.63;;;18.70;42.20;;;;;;4936660;29;20188;-69
2022/12/12 12:08:09;;;;;;;2.00;0.50;;;18.70;42.50;;;;;;4910517;29;20192;-69
2022/12/12 12:11:06;;;;;;;3.67;0.60;;;18.70;40.90;;;;;;4936794;29;20521;-69
2022/12/12 12:13:41;;;;;;;1.30;0.50;;;18.70;42.30;;;;;;4936910;29;20181;-70
2022/12/12 12:16:31;;;;;;;3.63;0.60;;;18.60;42.40;;;;;;4937122;29;20580;-69
2022/12/12 12:19:14;;;;;;;5.13;0.50;;;18.70;42.20;;;;;;4935511;29;20729;-69
2022/12/12 12:21:59;;;;;;;0.77;0.50;;;18.70;42.50;;;;;;4936687;29;20177;-68
2022/12/12 12:24:44;;;;;;;2.67;0.53;;;18.60;42.50;;;;;;4936516;29;20186;-69
2022/12/12 12:27:40;;;;;;;1.27;0.50;;;18.60;42.80;;;;;;4936475;29;20184;-69
2022/12/12 12:30:32;;;;;;;10.50;1.10;;;18.60;43.20;;;;;;4917689;29;20214;-69
2022/12/12 12:33:02;;;;;;;4.00;0.70;;;18.60;43.10;;;;;;4933562;29;20323;-69
2022/12/12 12:35:36;;;;;;;1.13;0.50;;;18.50;44.20;;;;;;4936167;29;20208;-69
2022/12/12 12:38:24;;;;;;;1.43;0.50;;;18.40;45.70;;;;;;4936107;29;20180;-71
2022/12/12 12:41:04;;;;;;;2.87;0.50;;;18.30;45.00;;;;;;4936983;29;20184;-67
2022/12/12 12:43:34;;;;;;;3.93;0.90;;;18.30;45.30;;;;;;4919120;29;20188;-68
2022/12/12 12:46:14;;;;;;;2.83;0.70;;;18.30;43.90;;;;;;4935944;29;20192;-68
2022/12/12 12:48:47;;;;;;;3.27;0.53;;;18.30;43.50;;;;;;4936359;29;20184;-68
2022/12/12 12:51:36;;;;;;;1.23;0.63;;;18.40;43.10;;;;;;4936201;29;20243;-68
2022/12/12 12:54:12;;;;;;;1.63;0.47;;;18.40;43.30;;;;;;4935818;29;20215;-69
2022/12/12 12:56:51;;;;;;;4.40;1.10;;;18.40;42.30;;;;;;4936456;29;20211;-69
2022/12/12 12:59:22;;;;;;;0.77;0.50;;;18.40;42.60;;;;;;4936247;29;20249;-69
2022/12/12 13:01:52;;;;;;;2.00;0.63;;;18.40;42.70;;;;;;4935919;29;20227;-68
2022/12/12 13:04:53;;;;;;;1.40;0.70;;;18.20;43.90;;;;;;4935278;29;20188;-71
2022/12/12 13:07:55;;;;;;;1.57;0.50;;;18.10;45.40;;;;;;4935835;29;20230;-68
2022/12/12 13:10:28;;;;;;;2.20;0.40;;;18.00;46.70;;;;;;4933170;29;20607;-69
2022/12/12 13:13:25;;;;;;;3.03;0.60;;;17.80;47.80;;;;;;4936025;29;20176;-67
2022/12/12 13:16:11;;;;;;;0.70;0.50;;;17.80;49.50;;;;;;4935558;29;20195;-69
2022/12/12 13:18:40;;;;;;;5.33;0.40;;;17.70;48.60;;;;;;4935810;29;20204;-72
2022/12/12 13:21:13;;;;;;;2.40;0.50;;;17.60;50.30;;;;;;4935881;29;20533;-69
2022/12/12 13:24:07;;;;;;;2.70;0.70;;;17.50;51.00;;;;;;4935492;29;20195;-69
2022/12/12 13:26:55;;;;;;;1.50;0.80;;;17.60;51.50;;;;;;4916718;29;20208;-70
2022/12/12 13:30:06;;;;;;;3.57;0.90;;;17.30;55.30;;;;;;4932391;29;20521;-69
2022/12/12 13:32:57;;;;;;;2.43;0.70;;;17.30;55.20;;;;;;4877063;29;20326;-69
2022/12/12 13:35:44;;;;;;;6.80;0.97;;;17.10;58.30;;;;;;4877028;29;20198;-69
2022/12/12 13:38:39;;;;;;;1.90;0.70;;;16.80;61.10;;;;;;4922610;29;20224;-68
2022/12/12 13:41:09;;;;;;;1.70;0.50;;;16.80;62.40;;;;;;4937534;29;20196;-69
2022/12/12 13:43:44;;;;;;;7.83;0.70;;;16.90;57.70;;;;;;4938907;29;20180;-68